createdAt,value
2018-08-16T00:00:18.964Z,90.90
2018-08-16T00:02:47.750Z,90.80
2018-08-16T00:05:16.965Z,91.20
2018-08-16T00:07:45.743Z,91.10
2018-08-16T00:10:15.527Z,90.10
2018-08-16T00:12:45.309Z,90.40
2018-08-16T00:15:14.776Z,90.50
2018-08-16T00:17:43.240Z,89.30
2018-08-16T00:20:12.190Z,89.00
2018-08-16T00:22:40.689Z,88.70
2018-08-16T00:25:10.127Z,88.90
2018-08-16T00:27:38.799Z,89.50
2018-08-16T00:30:11.166Z,88.40
2018-08-16T00:32:39.741Z,88.30
2018-08-16T00:35:08.263Z,88.20
2018-08-16T00:37:36.846Z,88.00
2018-08-16T00:40:07.240Z,87.80
2018-08-16T00:42:35.755Z,87.80
2018-08-16T00:45:06.310Z,89.10
2018-08-16T00:47:35.345Z,88.80
2018-08-16T00:50:05.291Z,88.00
2018-08-16T00:52:34.130Z,88.10
2018-08-16T00:55:02.692Z,89.60
2018-08-16T00:57:31.230Z,89.50
2018-08-16T00:59:59.710Z,90.60
2018-08-16T01:02:28.176Z,89.60
2018-08-16T01:04:56.567Z,90.10
2018-08-16T01:07:25.087Z,89.10
2018-08-16T01:09:53.530Z,89.30
2018-08-16T01:12:22.059Z,90.70
2018-08-16T01:14:50.603Z,91.00
2018-08-16T01:17:19.022Z,91.30
2018-08-16T01:19:47.570Z,91.60
2018-08-16T01:22:16.068Z,91.70
2018-08-16T01:24:44.635Z,91.80
2018-08-16T01:27:13.087Z,91.70
2018-08-16T01:29:41.580Z,91.70
2018-08-16T01:32:10.095Z,91.90
2018-08-16T01:34:38.560Z,91.90
2018-08-16T01:37:07.111Z,91.90
2018-08-16T01:39:35.539Z,91.90
2018-08-16T01:42:04.023Z,91.90
2018-08-16T01:44:32.608Z,91.90
2018-08-16T01:47:01.158Z,91.90
2018-08-16T01:49:36.524Z,91.90
2018-08-16T01:52:04.978Z,91.90
2018-08-16T01:54:33.619Z,91.90
2018-08-16T01:57:02.536Z,91.90
2018-08-16T01:59:31.061Z,91.90
2018-08-16T02:01:59.597Z,91.90
2018-08-16T02:04:28.093Z,91.90
2018-08-16T02:06:56.594Z,91.80
2018-08-16T02:09:25.063Z,91.90
2018-08-16T02:11:53.846Z,91.90
2018-08-16T02:14:22.454Z,91.90
2018-08-16T02:16:57.243Z,91.90
2018-08-16T02:19:25.696Z,91.90
2018-08-16T02:21:54.282Z,91.90
2018-08-16T02:24:22.801Z,91.90
2018-08-16T02:26:51.219Z,91.90
2018-08-16T02:29:19.747Z,91.90
2018-08-16T02:31:48.132Z,91.90
2018-08-16T02:34:16.520Z,91.90
2018-08-16T02:36:45.020Z,91.90
2018-08-16T02:39:13.556Z,91.90
2018-08-16T02:41:42.039Z,91.90
2018-08-16T02:44:10.555Z,91.90
2018-08-16T02:46:38.984Z,91.90
2018-08-16T02:49:07.415Z,91.90
2018-08-16T02:51:35.883Z,91.90
2018-08-16T02:54:04.395Z,91.90
2018-08-16T02:56:32.858Z,91.90
2018-08-16T02:59:01.392Z,91.90
2018-08-16T03:01:29.872Z,91.90
2018-08-16T03:03:58.519Z,91.90
2018-08-16T03:06:26.917Z,91.90
2018-08-16T03:08:55.423Z,91.90
2018-08-16T03:11:23.850Z,91.90
2018-08-16T03:13:52.319Z,91.90
2018-08-16T03:16:20.883Z,91.90
2018-08-16T03:18:49.350Z,91.90
2018-08-16T03:21:17.835Z,91.90
2018-08-16T03:23:46.287Z,91.90
2018-08-16T03:26:14.866Z,91.90
2018-08-16T03:28:43.360Z,91.90
2018-08-16T03:31:11.851Z,91.90
2018-08-16T03:33:40.328Z,91.90
2018-08-16T03:36:08.796Z,91.90
2018-08-16T03:38:37.303Z,91.90
2018-08-16T03:41:05.787Z,91.90
2018-08-16T03:43:34.260Z,91.90
2018-08-16T03:46:02.842Z,91.90
2018-08-16T03:48:31.315Z,91.90
2018-08-16T03:50:59.880Z,91.90
2018-08-16T03:53:28.339Z,91.90
2018-08-16T03:55:56.810Z,91.90
2018-08-16T03:58:25.267Z,91.90
2018-08-16T04:00:53.814Z,91.90
2018-08-16T04:03:22.271Z,91.90
2018-08-16T04:05:50.746Z,91.90
2018-08-16T04:08:19.319Z,91.90
2018-08-16T04:10:47.788Z,91.90
2018-08-16T04:13:16.428Z,91.90
2018-08-16T04:15:45.045Z,91.90
2018-08-16T04:18:13.548Z,91.90
2018-08-16T04:20:41.979Z,91.90
2018-08-16T04:23:10.508Z,91.90
2018-08-16T04:25:39.016Z,91.90
2018-08-16T04:28:07.473Z,91.90
2018-08-16T04:30:35.915Z,91.90
2018-08-16T04:33:04.489Z,91.90
2018-08-16T04:35:33.043Z,91.90
2018-08-16T04:38:01.501Z,91.90
2018-08-16T04:40:30.015Z,91.90
2018-08-16T04:42:58.560Z,91.90
2018-08-16T04:45:27.042Z,91.90
2018-08-16T04:47:55.550Z,91.90
2018-08-16T04:50:24.140Z,91.90
2018-08-16T04:52:52.567Z,91.90
2018-08-16T04:55:20.979Z,91.90
2018-08-16T04:57:49.487Z,91.90
2018-08-16T05:00:20.088Z,91.90
2018-08-16T05:02:48.635Z,91.90
2018-08-16T05:05:17.210Z,91.90
2018-08-16T05:07:45.656Z,91.90
2018-08-16T05:10:14.243Z,91.90
2018-08-16T05:12:42.799Z,91.90
2018-08-16T05:15:12.763Z,91.90
2018-08-16T05:17:41.448Z,91.90
2018-08-16T05:20:12.248Z,91.90
2018-08-16T05:22:40.844Z,91.90
2018-08-16T05:25:09.427Z,91.90
2018-08-16T05:27:38.790Z,91.90
2018-08-16T05:30:09.909Z,91.90
2018-08-16T05:32:38.451Z,91.90
2018-08-16T05:35:07.244Z,91.90
2018-08-16T05:37:36.538Z,91.90
2018-08-16T05:40:06.660Z,91.90
2018-08-16T05:42:35.222Z,91.90
2018-08-16T05:45:03.846Z,91.90
2018-08-16T05:47:32.319Z,91.90
2018-08-16T05:50:00.832Z,91.90
2018-08-16T05:52:29.496Z,91.90
2018-08-16T05:54:57.951Z,91.90
2018-08-16T05:57:26.431Z,91.90
2018-08-16T05:59:54.923Z,91.90
2018-08-16T06:02:23.332Z,91.90
2018-08-16T06:07:26.633Z,91.90
2018-08-16T06:09:55.094Z,91.90
2018-08-16T06:12:23.594Z,91.90
2018-08-16T06:14:52.171Z,91.90
2018-08-16T06:17:20.734Z,91.60
2018-08-16T06:19:49.562Z,91.50
2018-08-16T06:22:18.046Z,91.40
2018-08-16T06:24:46.702Z,91.10
2018-08-16T06:27:15.375Z,90.80
2018-08-16T06:29:43.879Z,90.40
2018-08-16T06:32:12.468Z,90.20
2018-08-16T06:34:41.076Z,90.00
2018-08-16T06:37:09.501Z,89.80
2018-08-16T06:39:38.169Z,89.60
2018-08-16T06:42:06.787Z,89.20
2018-08-16T06:44:35.402Z,89.00
2018-08-16T06:47:04.371Z,88.70
2018-08-16T06:49:32.939Z,88.30
2018-08-16T06:52:01.672Z,88.10
2018-08-16T06:54:30.200Z,87.80
2018-08-16T06:56:58.707Z,87.60
2018-08-16T06:59:27.283Z,87.20
2018-08-16T07:01:55.831Z,86.80
2018-08-16T07:04:24.298Z,86.30
2018-08-16T07:06:52.820Z,86.10
2018-08-16T07:09:21.247Z,85.40
2018-08-16T07:11:49.794Z,84.80
2018-08-16T07:14:18.408Z,84.40
2018-08-16T07:16:46.926Z,82.70
2018-08-16T07:19:15.450Z,82.50
2018-08-16T07:21:43.944Z,82.60
2018-08-16T07:24:12.672Z,82.80
2018-08-16T07:26:41.101Z,80.80
2018-08-16T07:29:09.951Z,80.10
2018-08-16T07:31:38.472Z,79.70
2018-08-16T07:34:07.094Z,79.00
2018-08-16T07:36:35.600Z,77.90
2018-08-16T07:39:06.276Z,77.50
2018-08-16T07:41:34.707Z,77.20
2018-08-16T07:44:03.411Z,76.70
2018-08-16T07:46:32.394Z,74.90
2018-08-16T07:49:00.864Z,76.10
2018-08-16T07:51:29.526Z,75.70
2018-08-16T07:53:57.800Z,74.70
2018-08-16T07:56:26.212Z,73.10
2018-08-16T07:58:54.937Z,71.00
2018-08-16T08:01:24.407Z,72.00
2018-08-16T08:03:52.941Z,70.20
2018-08-16T08:06:21.543Z,69.10
2018-08-16T08:08:50.103Z,68.90
2018-08-16T08:11:18.528Z,68.70
2018-08-16T08:13:47.091Z,68.00
2018-08-16T08:16:15.748Z,66.60
2018-08-16T08:18:44.370Z,65.40
2018-08-16T08:21:12.876Z,63.70
2018-08-16T08:23:41.396Z,63.30
2018-08-16T08:26:09.870Z,62.60
2018-08-16T08:28:38.380Z,61.50
2018-08-16T08:31:07.031Z,60.70
2018-08-16T08:33:35.527Z,56.30
2018-08-16T08:36:15.333Z,56.90
2018-08-16T08:38:43.792Z,56.30
2018-08-16T08:41:12.421Z,55.20
2018-08-16T08:43:52.156Z,55.90
2018-08-16T08:46:20.727Z,53.80
2018-08-16T08:48:49.243Z,53.50
2018-08-16T08:51:17.779Z,53.20
2018-08-16T08:54:55.951Z,53.90
2018-08-16T08:57:36.624Z,53.20
2018-08-16T09:00:06.322Z,51.80
2018-08-16T09:02:35.059Z,50.50
2018-08-16T09:05:03.714Z,50.20
2018-08-16T09:07:32.188Z,49.30
2018-08-16T09:11:15.616Z,47.90
2018-08-16T09:13:56.663Z,50.20
2018-08-16T09:16:29.103Z,48.50
2018-08-16T09:18:57.922Z,48.60
2018-08-16T09:21:27.062Z,47.70
2018-08-16T09:23:55.541Z,47.90
2018-08-16T09:26:29.305Z,47.10
2018-08-16T09:28:57.831Z,46.50
2018-08-16T09:31:37.529Z,45.50
2018-08-16T09:34:27.015Z,45.00
2018-08-16T09:36:55.459Z,45.60
2018-08-16T09:39:24.163Z,46.10
2018-08-16T09:41:52.732Z,44.20
2018-08-16T09:44:21.260Z,45.00
2018-08-16T09:47:03.157Z,44.20
2018-08-16T09:49:39.948Z,42.80
2018-08-16T09:52:09.206Z,44.70
2018-08-16T09:54:37.751Z,44.10
2018-08-16T09:57:07.623Z,43.90
2018-08-16T09:59:36.111Z,43.20
2018-08-16T10:02:06.107Z,43.60
2018-08-16T10:04:34.609Z,43.50
2018-08-16T10:07:03.381Z,42.90
2018-08-16T10:09:32.796Z,42.40
2018-08-16T10:12:02.599Z,41.80
2018-08-16T10:14:31.185Z,41.60
2018-08-16T10:16:59.649Z,41.40
2018-08-16T10:19:28.772Z,42.00
2018-08-16T10:21:57.416Z,41.40
2018-08-16T10:24:25.943Z,41.70
2018-08-16T10:26:54.446Z,41.70
2018-08-16T10:29:23.129Z,41.60
2018-08-16T10:31:51.703Z,41.10
2018-08-16T10:34:20.143Z,41.20
2018-08-16T10:36:48.635Z,41.40
2018-08-16T10:39:18.035Z,41.50
2018-08-16T10:41:46.594Z,40.60
2018-08-16T10:44:15.613Z,40.70
2018-08-16T10:46:44.156Z,40.60
2018-08-16T10:49:12.678Z,40.00
2018-08-16T10:51:41.251Z,40.10
2018-08-16T10:54:09.770Z,39.90
2018-08-16T10:56:38.327Z,39.80
2018-08-16T10:59:07.019Z,39.90
2018-08-16T11:01:35.566Z,40.00
2018-08-16T11:04:04.072Z,39.30
2018-08-16T11:06:32.493Z,39.80
2018-08-16T11:09:01.100Z,39.90
2018-08-16T11:11:29.794Z,39.30
2018-08-16T11:13:58.313Z,39.50
2018-08-16T11:16:26.736Z,39.40
2018-08-16T11:18:56.244Z,39.40
2018-08-16T11:21:24.731Z,38.90
2018-08-16T11:23:53.206Z,38.80
2018-08-16T11:26:21.653Z,38.20
2018-08-16T11:28:50.155Z,38.10
2018-08-16T11:31:18.683Z,37.70
2018-08-16T11:33:47.278Z,36.50
2018-08-16T11:36:15.752Z,36.10
2018-08-16T11:38:44.319Z,35.90
2018-08-16T11:41:12.843Z,34.70
2018-08-16T11:43:41.434Z,33.50
2018-08-16T11:46:09.897Z,33.70
2018-08-16T11:48:38.345Z,33.50
2018-08-16T11:51:06.974Z,32.40
2018-08-16T11:53:35.483Z,33.10
2018-08-16T11:56:04.097Z,32.00
2018-08-16T11:58:32.604Z,31.30
2018-08-16T12:01:01.109Z,31.70
2018-08-16T12:03:29.748Z,30.90
2018-08-16T12:05:58.231Z,30.20
2018-08-16T12:08:26.684Z,30.60
2018-08-16T12:10:55.148Z,29.90
2018-08-16T12:13:23.604Z,29.70
2018-08-16T12:15:52.099Z,29.40
2018-08-16T12:18:20.618Z,29.00
2018-08-16T12:20:49.075Z,27.90
2018-08-16T12:23:17.607Z,27.80
2018-08-16T12:25:46.073Z,27.90
2018-08-16T12:28:14.603Z,28.60
2018-08-16T12:30:43.164Z,27.80
2018-08-16T12:33:11.640Z,27.00
2018-08-16T12:35:40.156Z,25.70
2018-08-16T12:38:08.855Z,25.80
2018-08-16T12:40:37.497Z,26.50
2018-08-16T12:43:05.992Z,26.30
2018-08-16T12:45:34.487Z,25.90
2018-08-16T12:48:03.065Z,25.30
2018-08-16T12:50:31.663Z,25.20
2018-08-16T12:53:00.308Z,25.00
2018-08-16T12:55:29.777Z,24.50
2018-08-16T12:57:58.356Z,24.20
2018-08-16T13:00:27.153Z,24.40
2018-08-16T13:02:55.627Z,24.20
2018-08-16T13:05:24.220Z,23.70
2018-08-16T13:07:52.764Z,23.60
2018-08-16T13:10:21.217Z,23.30
2018-08-16T13:12:49.713Z,22.90
2018-08-16T13:15:18.268Z,22.40
2018-08-16T13:17:46.766Z,22.20
2018-08-16T13:20:15.386Z,21.70
2018-08-16T13:22:44.049Z,21.80
2018-08-16T13:26:16.193Z,21.10
2018-08-16T13:28:44.787Z,20.90
2018-08-16T13:31:13.486Z,21.10
2018-08-16T13:33:41.944Z,21.40
2018-08-16T13:36:10.524Z,21.80
2018-08-16T13:38:38.947Z,21.60
2018-08-16T13:41:07.608Z,20.70
2018-08-16T13:43:36.016Z,20.80
2018-08-16T13:46:05.416Z,20.30
2018-08-16T13:48:34.051Z,20.20
2018-08-16T13:51:02.658Z,20.20
2018-08-16T13:53:31.164Z,21.20
2018-08-16T13:55:59.788Z,22.60
2018-08-16T13:58:28.276Z,22.10
2018-08-16T14:00:56.817Z,21.90
2018-08-16T14:03:25.321Z,21.30
2018-08-16T14:05:53.873Z,20.70
2018-08-16T14:08:22.311Z,20.10
2018-08-16T14:10:51.703Z,20.30
2018-08-16T14:13:21.775Z,20.10
2018-08-16T14:15:50.228Z,20.80
2018-08-16T14:18:18.659Z,20.70
2018-08-16T14:20:47.272Z,19.80
2018-08-16T14:23:15.762Z,18.70
2018-08-16T14:25:44.331Z,18.20
2018-08-16T14:28:14.608Z,17.00
2018-08-16T14:30:44.041Z,17.90
2018-08-16T14:33:12.758Z,18.70
2018-08-16T14:35:41.332Z,19.50
2018-08-16T14:38:10.110Z,19.60
2018-08-16T14:40:39.052Z,20.10
2018-08-16T14:43:07.856Z,20.60
2018-08-16T14:45:36.902Z,20.90
2018-08-16T14:48:10.404Z,20.70
2018-08-16T14:50:40.846Z,21.70
2018-08-16T14:53:09.951Z,22.40
2018-08-16T14:55:38.867Z,23.40
2018-08-16T14:58:07.843Z,23.70
2018-08-16T15:00:36.524Z,23.90
2018-08-16T15:03:05.114Z,24.20
2018-08-16T15:05:33.708Z,24.10
2018-08-16T15:11:54.914Z,23.40
2018-08-16T15:14:31.103Z,23.60
2018-08-16T15:16:59.736Z,23.30
2018-08-16T15:19:28.386Z,23.10
2018-08-16T15:21:56.996Z,22.10
2018-08-16T15:24:25.759Z,21.60
2018-08-16T15:26:54.353Z,21.10
2018-08-16T15:29:22.793Z,20.40
2018-08-16T15:31:51.513Z,20.90
2018-08-16T15:34:20.068Z,19.90
2018-08-16T15:36:48.595Z,19.80
2018-08-16T15:39:17.285Z,20.60
2018-08-16T15:41:45.873Z,21.10
2018-08-16T15:44:14.585Z,22.60
2018-08-16T15:46:43.212Z,23.50
2018-08-16T15:49:11.743Z,23.50
2018-08-16T15:51:40.360Z,24.10
2018-08-16T15:54:08.916Z,25.00
2018-08-16T15:56:37.618Z,25.40
2018-08-16T15:59:07.113Z,26.30
2018-08-16T16:01:35.626Z,27.20
2018-08-16T16:04:04.130Z,27.40
2018-08-16T16:06:32.937Z,28.20
2018-08-16T16:09:01.597Z,28.80
2018-08-16T16:11:30.068Z,28.60
2018-08-16T16:13:58.855Z,31.70
2018-08-16T16:16:27.509Z,31.40
2018-08-16T16:18:56.155Z,30.90
2018-08-16T16:21:25.000Z,32.00
2018-08-16T16:23:53.623Z,31.30
2018-08-16T16:26:26.843Z,31.30
2018-08-16T16:28:55.436Z,31.90
2018-08-16T16:31:24.114Z,32.00
2018-08-16T16:33:52.795Z,32.40
2018-08-16T16:36:21.317Z,32.50
2018-08-16T16:38:50.032Z,32.80
2018-08-16T16:41:18.589Z,33.20
2018-08-16T16:43:47.203Z,33.50
2018-08-16T16:49:26.599Z,34.10
2018-08-16T16:51:55.164Z,34.00
2018-08-16T16:54:23.878Z,35.60
2018-08-16T16:56:52.515Z,35.60
2018-08-16T16:59:21.020Z,36.50
2018-08-16T17:01:49.522Z,35.90
2018-08-16T17:04:18.258Z,35.70
2018-08-16T17:06:46.797Z,36.30
2018-08-16T17:09:15.655Z,36.40
2018-08-16T17:11:44.522Z,36.70
2018-08-16T17:14:13.228Z,37.50
2018-08-16T17:16:41.804Z,38.30
2018-08-16T17:19:10.424Z,38.50
2018-08-16T17:21:39.077Z,37.60
2018-08-16T17:24:22.720Z,37.50
2018-08-16T17:26:52.012Z,37.50
2018-08-16T17:29:25.082Z,37.90
2018-08-16T17:31:53.974Z,38.60
2018-08-16T17:34:23.325Z,39.30
2018-08-16T17:36:52.304Z,38.20
2018-08-16T17:39:21.260Z,38.60
2018-08-16T17:41:50.239Z,39.60
2018-08-16T17:44:19.348Z,39.10
2018-08-16T17:46:50.513Z,40.10
2018-08-16T17:49:19.595Z,39.80
2018-08-16T17:51:48.604Z,40.60
2018-08-16T17:54:18.513Z,41.00
2018-08-16T17:56:47.972Z,40.90
2018-08-16T17:59:18.102Z,40.70
2018-08-16T18:01:47.220Z,40.80
2018-08-16T18:04:18.661Z,40.80
2018-08-16T18:06:48.006Z,40.80
2018-08-16T18:09:16.756Z,40.90
2018-08-16T18:11:45.316Z,40.70
2018-08-16T18:14:14.162Z,41.20
2018-08-16T18:16:42.746Z,41.20
2018-08-16T18:19:12.313Z,41.70
2018-08-16T18:21:41.001Z,41.70
2018-08-16T18:24:09.572Z,42.10
2018-08-16T18:26:38.297Z,41.90
2018-08-16T18:29:07.256Z,42.10
2018-08-16T18:31:35.840Z,42.60
2018-08-16T18:34:05.552Z,43.10
2018-08-16T18:36:34.151Z,44.00
2018-08-16T18:39:03.635Z,44.20
2018-08-16T18:41:32.748Z,43.90
2018-08-16T18:44:01.330Z,45.40
2018-08-16T18:46:29.913Z,46.70
2018-08-16T18:48:58.586Z,48.40
2018-08-16T18:51:27.880Z,50.70
2018-08-16T18:53:56.401Z,50.90
2018-08-16T18:56:25.356Z,51.10
2018-08-16T18:58:53.978Z,51.60
2018-08-16T19:01:22.657Z,53.70
2018-08-16T19:03:51.192Z,53.60
2018-08-16T19:06:19.679Z,53.30
2018-08-16T19:08:48.362Z,53.80
2018-08-16T19:11:17.148Z,54.00
2018-08-16T19:13:46.216Z,54.40
2018-08-16T19:16:14.795Z,55.00
2018-08-16T19:18:43.485Z,54.40
2018-08-16T19:21:12.155Z,54.00
2018-08-16T19:23:47.227Z,54.60
2018-08-16T19:26:15.696Z,55.70
2018-08-16T19:28:47.429Z,56.20
2018-08-16T19:31:16.197Z,56.80
2018-08-16T19:33:44.752Z,56.70
2018-08-16T19:36:13.660Z,57.80
2018-08-16T19:38:42.229Z,58.10
2018-08-16T19:41:11.361Z,58.30
2018-08-16T19:43:39.956Z,59.50
2018-08-16T19:46:08.539Z,59.50
2018-08-16T19:48:37.363Z,59.60
2018-08-16T19:51:06.055Z,60.30
2018-08-16T19:53:34.578Z,60.20
2018-08-16T19:56:03.137Z,61.50
2018-08-16T19:58:31.635Z,61.00
2018-08-16T20:01:00.345Z,62.10
2018-08-16T20:03:28.922Z,62.20
2018-08-16T20:05:57.343Z,62.50
2018-08-16T20:08:25.777Z,63.40
2018-08-16T20:10:54.278Z,64.30
2018-08-16T20:13:22.846Z,63.90
2018-08-16T20:15:51.424Z,65.20
2018-08-16T20:18:20.046Z,64.50
2018-08-16T20:20:48.954Z,65.10
2018-08-16T20:23:17.696Z,65.40
2018-08-16T20:25:46.369Z,66.10
2018-08-16T20:28:15.041Z,66.10
2018-08-16T20:30:43.508Z,66.70
2018-08-16T20:33:11.916Z,66.40
2018-08-16T20:35:40.479Z,66.40
2018-08-16T20:38:09.055Z,67.80
2018-08-16T20:40:37.502Z,67.00
2018-08-16T20:43:05.929Z,67.90
2018-08-16T20:45:34.460Z,67.60
2018-08-16T20:48:02.882Z,67.70
2018-08-16T20:50:31.329Z,68.60
2018-08-16T20:52:59.856Z,69.40
2018-08-16T20:55:28.471Z,69.20
2018-08-16T20:57:56.889Z,69.50
2018-08-16T21:00:25.385Z,70.30
2018-08-16T21:02:53.870Z,69.30
2018-08-16T21:05:22.284Z,70.30
2018-08-16T21:07:50.848Z,69.90
2018-08-16T21:10:19.771Z,70.90
2018-08-16T21:12:48.465Z,70.00
2018-08-16T21:15:17.179Z,69.50
2018-08-16T21:17:46.296Z,70.80
2018-08-16T21:20:14.787Z,71.10
2018-08-16T21:22:43.567Z,72.00
2018-08-16T21:25:12.043Z,72.90
2018-08-16T21:27:40.949Z,72.30
2018-08-16T21:30:09.518Z,72.90
2018-08-16T21:32:38.296Z,73.30
2018-08-16T21:35:07.345Z,73.50
2018-08-16T21:37:36.083Z,73.30
2018-08-16T21:40:04.948Z,73.10
2018-08-16T21:42:33.703Z,73.20
2018-08-16T21:45:02.255Z,73.80
2018-08-16T21:47:30.941Z,74.50
2018-08-16T21:49:59.488Z,75.10
2018-08-16T21:52:28.113Z,75.50
2018-08-16T21:54:56.772Z,75.40
2018-08-16T21:57:25.435Z,76.10
2018-08-16T21:59:53.883Z,75.40
2018-08-16T22:02:22.365Z,75.80
2018-08-16T22:04:50.920Z,75.20
2018-08-16T22:08:08.635Z,75.50
2018-08-16T22:10:37.116Z,75.90
2018-08-16T22:13:05.775Z,75.90
2018-08-16T22:15:34.436Z,75.90
2018-08-16T22:18:03.064Z,76.00
2018-08-16T22:20:31.720Z,76.20
2018-08-16T22:23:00.529Z,76.10
2018-08-16T22:25:29.016Z,76.20
2018-08-16T22:27:57.533Z,75.90
2018-08-16T22:30:26.013Z,75.80
2018-08-16T22:32:54.608Z,76.10
2018-08-16T22:35:23.072Z,76.00
2018-08-16T22:37:51.536Z,75.60
2018-08-16T22:40:20.132Z,75.90
2018-08-16T22:42:48.588Z,76.10
2018-08-16T22:45:17.103Z,76.20
2018-08-16T22:47:45.668Z,76.30
2018-08-16T22:50:14.372Z,76.10
2018-08-16T22:52:42.798Z,75.90
2018-08-16T22:55:12.165Z,75.60
2018-08-16T22:57:40.705Z,76.10
2018-08-16T23:00:11.430Z,76.10
2018-08-16T23:02:40.317Z,76.10
2018-08-16T23:05:08.988Z,76.20
2018-08-16T23:07:37.455Z,75.90
2018-08-16T23:10:06.107Z,75.70
2018-08-16T23:12:34.551Z,75.70
2018-08-16T23:15:03.128Z,75.80
2018-08-16T23:17:31.599Z,75.90
2018-08-16T23:20:00.087Z,75.50
2018-08-16T23:22:28.581Z,75.30
2018-08-16T23:24:56.996Z,75.50
2018-08-16T23:27:31.820Z,75.40
2018-08-16T23:30:00.297Z,75.40
2018-08-16T23:32:28.865Z,75.70
2018-08-16T23:34:57.261Z,75.50
2018-08-16T23:37:25.647Z,75.60
2018-08-16T23:39:54.207Z,75.20
2018-08-16T23:42:22.746Z,75.30
2018-08-16T23:44:51.175Z,75.50
2018-08-16T23:47:23.265Z,75.60
2018-08-16T23:49:51.880Z,75.80
2018-08-16T23:52:20.647Z,75.60
2018-08-16T23:54:49.354Z,75.60
2018-08-16T23:57:18.131Z,75.50
2018-08-16T23:59:46.577Z,75.60
